Tiempo atmosférico en la estación meteorológica de Quintana del Castillo, Villameca, León (995 m.)



Fecha
DESCASC
Temp. máxima en grados centígrados (hora)
DESCASC
Temp. mínima en grados centígrados (hora)
DESCASC
Temp. media en grados centígrados
DESCASC
Racha de viento máxima en m/sg (hora)
DESCASC
Velocidad máxima media en intervalos de 10 minutos(hora)
DESCASC
Precipitaciones diarias en mm
DESCASC
Precipitaciones de 00:00 a 06:00 en mm
DESCASC
Precipitaciones de 06:00 a 12:00 en mm
DESCASC
Precipitaciones de 12:00 a 18:00 en mm
DESCASC
Precipitaciones de 18:00 a 24:00 en mm
DESCASC
23-06-2019 20.1 (18:10) 12.1 (08:40) 16.1 11.67 (04:30) 6.94 (04:30) 15.6 0.4 0.4 1.8 13
22-06-2019 25.2 (16:40) 9 (06:10) 17.1 8.61 (15:30) 5.28 (23:20) 0 0 0 0 0
21-06-2019 22.5 (19:30) 9.4 (06:20) 15.9 7.78 (18:40) 3.06 (09:20) 0.2 0 0.2 0 0
20-06-2019 20 (15:00) 9.5 (00:00) 14.8 7.78 (19:20) 6.11 (19:20) 2.2 0 0 2.2 0
19-06-2019 20.3 (16:40) 11.9 (00:00) 16.1 10.83 (19:30) 6.94 (20:00) 1.8 1.8 0 0 0
18-06-2019 22.6 (12:50) 10.5 (00:00) 16.6 13.06 (14:00) 6.67 (15:10) 4.2 0 0 0 4.2
17-06-2019 25.2 (14:20) 9.8 (00:00) 17.5 12.22 (13:50) 5.28 (14:30) 0 0 0 0 0
16-06-2019 24.3 (17:10) 6.6 (00:00) 15.4 7.22 (00:20) 3.61 (00:20) 0 0 0 0 0
15-06-2019 20.2 (17:20) 6.5 (00:00) 13.4 11.11 (00:20) 6.39 (00:20) 0 0 0 0 0
14-06-2019 18.4 (15:10) 4.3 (00:00) 11.3 13.89 (20:00) 8.89 (18:30) 0 0 0 0 0
13-06-2019 19.1 (15:20) 4.7 (00:00) 11.9 12.5 (19:10) 7.78 (19:20) 0 0 0 0 0
12-06-2019 17.6 (17:50) 2 (00:00) 9.8 11.11 (09:50) 7.22 (09:40) 0 0 0 0 0
11-06-2019 12.8 (18:50) 4.9 (00:00) 8.9 13.06 (17:20) 9.17 (13:30) 0 0 0 0 0
10-06-2019 17.4 (18:00) 4.5 (00:00) 10.9 12.22 (19:30) 8.06 (16:50) 0 0 0 0 0
09-06-2019 17.9 (17:40) 8.2 (00:00) 13 13.61 (18:50) 8.33 (19:00) 0 0 0 0 0
08-06-2019 18.6 (18:30) 3.3 (00:00) 11 9.44 (22:30) 5.56 (19:50) 0 0 0 0 0
07-06-2019 11.9 (15:50) 3.9 (00:00) 7.9 15.83 (04:10) 8.89 (06:00) 1.2 1 0.2 0 0
06-06-2019 12.9 (17:20) 1.9 (00:00) 7.4 18.89 (20:40) 9.72 (20:40) 5.4 0 0 0 5.4
05-06-2019 13.2 (15:30) 5.5 (00:00) 9.3 16.67 (14:20) 10.83 (14:20) 0 0 0 0 0
04-06-2019 16.3 (14:10) 8.6 (00:00) 12.4 16.67 (15:00) 10.56 (15:00) 0 0 0 0 0
03-06-2019 25.8 (16:30) 12.9 (00:00) 19.3 12.78 (19:40) 7.78 (19:20) 0 0 0 0 0
02-06-2019 25.3 (15:10) 12.7 (00:00) 19 12.78 (13:40) 7.5 (15:30) 0 0 0 0 0
01-06-2019 29.7 (16:10) 13.1 (00:00) 21.4 10 (18:10) 6.11 (20:20) 0 0 0 0 0
31-05-2019 29.7 (17:50) 11.3 (00:00) 20.5 6.11 (16:10) 4.17 (05:40) 0 0 0 0 0
30-05-2019 27.3 (17:30) 8 (00:00) 17.6 7.78 (19:50) 6.11 (20:10) 0 0 0 0 0
29-05-2019 23.3 (16:50) 5.3 (00:00) 14.3 9.72 (20:50) 7.22 (20:30) 0 0 0 0 0
28-05-2019 18.4 (13:20) 4.7 (00:00) 11.5 15 (21:50) 11.11 (21:50) 0 0 0 0 0

Gráficas

Temp. máximas Temp. mínimas Temp. medias Precipitaciones Rachas de viento máximas Velocidades máximas media en intervalos de 10 minutos

Datos horarios

Fecha y hora oficial Temperatura (ºC) Velocidad del viento (km/h) Dirección del viento Racha (km/h) Dirección de racha Precipitación (mm) Presión (hPa) Tendencia (hPa) Humedad (%)
2019-06-26 23:00:00 17.9 12 Norte 14 Norte 0 -- -- 76
2019-06-26 22:00:00 20.2 6 Nordeste 10 Nordeste 0 -- -- 70
2019-06-26 21:00:00 23.9 5 Sur 18 Sur 0 -- -- 53
2019-06-26 20:00:00 25.2 9 Sudoeste 28 Sur 0 -- -- 49
2019-06-26 19:00:00 26.3 12 Sudoeste 33 Sudoeste 0 -- -- 47
2019-06-26 18:00:00 25.9 12 Sur 28 Sur 0 -- -- 48
2019-06-26 17:00:00 25.9 12 Sudoeste 32 Oeste 0 -- -- 49
2019-06-26 16:00:00 24.7 12 Sudoeste 31 Oeste 0 -- -- 51
2019-06-26 15:00:00 23.6 14 Sudoeste 37 Sur 0 -- -- 57
2019-06-26 14:00:00 23.4 17 Sudoeste 35 Sudoeste 0 -- -- 58
2019-06-26 13:00:00 22.2 12 Sur 28 Sur 0 -- -- 64
2019-06-26 12:00:00 21.8 11 Sudoeste 28 Sudoeste 0 -- -- 66
2019-06-26 11:00:00 20.8 9 Sur 20 Sur 0 -- -- 75
2019-06-26 10:00:00 19.5 8 Sur 15 Sudeste 0 -- -- 81
2019-06-26 09:00:00 18 7 Sudeste 18 Sudeste 0 -- -- 83
2019-06-26 08:00:00 15.4 6 Nordeste 13 Norte 0 -- -- 90
2019-06-26 07:00:00 13.8 7 Norte 12 Norte 0 -- -- 92
2019-06-26 06:00:00 14.1 9 Norte 13 Norte 0 -- -- 91
2019-06-26 05:00:00 14.3 5 Nordeste 13 Norte 0 -- -- 90
2019-06-26 04:00:00 14.7 5 Norte 13 Norte 0 -- -- 87
2019-06-26 03:00:00 14.8 6 Norte 9 Norte 0 -- -- 89
2019-06-26 02:00:00 14.9 5 Nordeste 7 Nordeste 0 -- -- 91
2019-06-26 01:00:00 15.4 4 Norte 12 Norte 0 -- -- 88
2019-06-26 00:00:00 15.9 8 Nordeste 14 Norte 0 -- -- 89
2019-06-25 23:00:00 16.1 9 Norte 10 Norte 0 -- -- 88
2019-06-25 22:00:00 17.3 4 Norte 8 Nordeste 0 -- -- 86
2019-06-25 21:00:00 18.9 4 Nordeste 6 Este 0 -- -- 75
2019-06-25 20:00:00 19 3 Sudeste 10 Este 0 -- -- 72
2019-06-25 19:00:00 18.4 6 Sudeste 11 Este 0 -- -- 77
2019-06-25 18:00:00 17.7 4 Este 11 Sur 0 -- -- 77
2019-06-25 17:00:00 17.3 7 Sudeste 13 Sur 0 -- -- 83
2019-06-25 16:00:00 16.7 5 Sur 12 Sur 0.4 -- -- 91
2019-06-25 15:00:00 16.8 4 Sur 13 Sur 0 -- -- 83
2019-06-25 14:00:00 15.8 6 Oeste 18 Sur 0 -- -- 90
2019-06-25 13:00:00 15.7 7 Sur 17 Sudoeste 0 -- -- 89
2019-06-25 12:00:00 15.1 6 Sudeste 16 Sudeste 0 -- -- 92
2019-06-25 11:00:00 14.1 6 Sudeste 10 Sudeste 0 -- -- 96
2019-06-25 10:00:00 13.3 7 Este 11 Sur 0 -- -- 99
2019-06-25 09:00:00 12.9 3 Sudeste 12 Sudeste 0 -- -- 98
2019-06-25 08:00:00 12.6 4 Este 9 Este 0 -- -- 97
2019-06-25 07:00:00 12.3 5 Este 10 Sudeste 0 -- -- 98
2019-06-25 06:00:00 12.3 7 Este 11 Este 0 -- -- 98
2019-06-25 05:00:00 12.5 4 Sudeste 8 Sudeste 0 -- -- 98
2019-06-25 04:00:00 12.4 3 Este 9 Este 0 -- -- 99
2019-06-25 03:00:00 12.3 5 Sudeste 12 Este 0 -- -- 98
2019-06-25 02:00:00 12.6 6 Este 8 Sudeste 0 -- -- 98
2019-06-25 01:00:00 12.9 4 Norte 7 Nordeste 0 -- -- 98
2019-06-25 00:00:00 12.6 2 Sur 10 Sudeste 0 -- -- 98
2019-06-24 23:00:00 12.8 3 Sur 8 Sur 0 -- -- 98
2019-06-24 22:00:00 13.1 3 Sur 5 Sur 0.2 -- -- 98
2019-06-24 21:00:00 13.1 3 Sudoeste 15 Sudeste 0.2 -- -- 98
2019-06-24 20:00:00 13.1 7 Sudeste 17 Este 0 -- -- 97
2019-06-24 19:00:00 13.3 3 Oeste 14 Este 0.2 -- -- 97
2019-06-24 18:00:00 12.9 4 Este 10 Sudoeste 1.4 -- -- 97
2019-06-24 17:00:00 12.9 4 Sudoeste 21 Este 3.4 -- -- 97
2019-06-24 16:00:00 12.9 5 Nordeste 13 Este 5.4 -- -- 96
2019-06-24 15:00:00 12.9 7 Este 12 Este 2.6 -- -- 95
2019-06-24 14:00:00 12.7 3 Nordeste 9 Sur 3.4 -- -- 95
2019-06-24 13:00:00 12.7 5 Sudoeste 15 Sur 4 -- -- 93
2019-06-24 12:00:00 14.3 8 Sur 18 Sur 2.4 -- -- 94
2019-06-24 11:00:00 15.3 6 Sudeste 19 Sudeste 1 -- -- 94
2019-06-24 10:00:00 15.2 6 Sudeste 15 Este 0 -- -- 95
2019-06-24 09:00:00 14.9 10 Sudeste 16 Sudeste 0.2 -- -- 97
2019-06-24 08:00:00 14.8 2 Sur 14 Sudeste 0.4 -- -- 97
2019-06-24 07:00:00 14.7 8 Sudeste 19 Sudeste 1.4 -- -- 97
2019-06-24 06:00:00 14.9 3 Noroeste 6 Norte 0.2 -- -- 96
2019-06-24 05:00:00 14.8 5 Norte 8 Norte 0 -- -- 96
2019-06-24 04:00:00 14.5 6 Norte 11 Norte 0.2 -- -- 97
2019-06-24 03:00:00 14.3 5 Norte 11 Norte 0 -- -- 97
2019-06-24 02:00:00 14.4 0 Calma 12 Norte 0 -- -- 95
2019-06-24 01:00:00 14.8 9 Norte 12 Norte 0 -- -- 95
2019-06-24 00:00:00 15.2 7 Nordeste 23 Norte 0.6 -- -- 93
2019-06-23 23:00:00 15.3 11 Norte 24 Norte 5.8 -- -- 94
2019-06-23 22:00:00 15.7 9 Norte 17 Norte 0.2 -- -- 92
2019-06-23 21:00:00 16.2 5 Noroeste 13 Noroeste 6.2 -- -- 92
2019-06-23 20:00:00 17.8 6 Norte 19 Norte 0.2 -- -- 82
2019-06-23 19:00:00 18 8 Noroeste 26 Noroeste 0 -- -- 83
2019-06-23 18:00:00 19.9 13 Oeste 21 Oeste 0 -- -- 68
2019-06-23 17:00:00 18.6 6 Sudoeste 15 Oeste 0 -- -- 80
2019-06-23 16:00:00 17.8 7 Oeste 30 Oeste 1.8 -- -- 84
2019-06-23 15:00:00 19.4 17 Oeste 37 Sudoeste 0 -- -- 63
2019-06-23 14:00:00 18 7 Norte 18 Norte 0 -- -- 72
2019-06-23 13:00:00 17.7 0 Calma 14 Oeste 0 -- -- 70
2019-06-23 12:00:00 17.4 8 Sur 18 Sudoeste 0 -- -- 67
2019-06-23 11:00:00 16.3 3 Sudeste 8 Norte 0 -- -- 79
2019-06-23 10:00:00 13.7 4 Norte 13 Norte 0.2 -- -- 90
2019-06-23 09:00:00 12.5 3 Este 15 Norte 0 -- -- 88
2019-06-23 08:00:00 12.7 12 Norte 15 Norte 0.2 -- -- 88
2019-06-23 07:00:00 13.7 8 Norte 13 Norte 0 -- -- 71
2019-06-23 06:00:00 13.1 4 Oeste 33 Noroeste 0 -- -- 67
2019-06-23 05:00:00 13.8 16 Noroeste 42 Noroeste 0.2 -- -- 63
2019-06-23 04:00:00 15.9 24 Noroeste 38 Noroeste 0 -- -- 65
2019-06-23 03:00:00 15.3 8 Nordeste 17 Norte 0 -- -- 81
2019-06-23 02:00:00 15.7 12 Norte 21 Norte 0.2 -- -- 82
2019-06-23 01:00:00 18.3 0 Calma 9 Norte 0 -- -- 61
2019-06-23 00:00:00 19.2 8 Noroeste 28 Noroeste 0 -- -- 54
2019-06-22 23:00:00 20 16 Noroeste 24 Noroeste 0 -- -- 54
2019-06-22 22:00:00 21.2 8 Noroeste 14 Noroeste 0 -- -- 45
2019-06-22 21:00:00 21.9 8 Noroeste 20 Oeste 0 -- -- 45
2019-06-22 20:00:00 23.8 6 Oeste 19 Oeste 0 -- -- 38
2019-06-22 19:00:00 24.7 11 Oeste 29 Oeste 0 -- -- 34
2019-06-22 18:00:00 24.7 12 Sur 22 Sudoeste 0 -- -- 38
2019-06-22 17:00:00 24.5 12 Sudoeste 29 Sudoeste 0 -- -- 39
2019-06-22 16:00:00 23.7 10 Sur 31 Sudoeste 0 -- -- 40
2019-06-22 15:00:00 23.6 14 Sudoeste 29 Oeste 0 -- -- 39
2019-06-22 14:00:00 22.7 9 Sur 27 Sur 0 -- -- 39
2019-06-22 13:00:00 20.1 9 Sur 23 Sudeste 0 -- -- 42
2019-06-22 12:00:00 18.5 7 Sur 17 Sudeste 0 -- -- 52
2019-06-22 11:00:00 16.1 8 Sudeste 17 Sudeste 0 -- -- 57
2019-06-22 10:00:00 14.4 3 Sudoeste 6 Oeste 0 -- -- 70
2019-06-22 09:00:00 12.7 3 Nordeste 8 Nordeste 0 -- -- 79
2019-06-22 08:00:00 9.8 7 Norte 9 Norte 0 -- -- 93
2019-06-22 07:00:00 9.1 8 Norte 12 Norte 0 -- -- 95
2019-06-22 06:00:00 9.2 7 Nordeste 10 Norte 0 -- -- 94
2019-06-22 05:00:00 9.8 7 Norte 9 Norte 0 -- -- 93
2019-06-22 04:00:00 10.5 5 Norte 8 Nordeste 0 -- -- 92
2019-06-22 03:00:00 11.7 5 Nordeste 8 Nordeste 0 -- -- 88
2019-06-22 02:00:00 13.1 4 Este 8 Sur 0 -- -- 78
2019-06-22 01:00:00 14.4 5 Sudeste 17 Sudeste 0 -- -- 71
2019-06-22 00:00:00 14.9 8 Norte 11 Norte 0 -- -- 72
2019-06-21 23:00:00 15.9 4 Nordeste 5 Nordeste 0 -- -- 70
2019-06-21 22:00:00 18.5 0 Calma 13 Oeste 0 -- -- 54
2019-06-21 21:00:00 20.1 4 Sur 8 Sudoeste 0 -- -- 50
2019-06-21 20:00:00 20.8 4 Sudoeste 16 Oeste 0 -- -- 46
2019-06-21 19:00:00 22.1 10 Oeste 28 Norte 0 -- -- 42
2019-06-21 18:00:00 20.5 3 Sudoeste 19 Sudoeste 0 -- -- 46
2019-06-21 17:00:00 19.8 8 Sur 19 Este 0 -- -- 48
2019-06-21 16:00:00 20 7 Sudeste 19 Sur 0 -- -- 46
2019-06-21 15:00:00 19.4 6 Sur 21 Sudoeste 0 -- -- 50
2019-06-21 14:00:00 20.1 9 Oeste 20 Sudoeste 0 -- -- 47
2019-06-21 13:00:00 18 8 Sudeste 17 Sudeste 0 -- -- 51
2019-06-21 12:00:00 16.2 3 Oeste 14 Oeste 0 -- -- 62
2019-06-21 11:00:00 15.7 4 Nordeste 17 Noroeste 0 -- -- 64
2019-06-21 10:00:00 13 10 Oeste 19 Noroeste 0 -- -- 80
2019-06-21 09:00:00 13.4 6 Sudoeste 12 Sudoeste 0 -- -- 79
2019-06-21 08:00:00 10.7 2 Noroeste 10 Noroeste 0 -- -- 89
2019-06-21 07:00:00 10.2 5 Norte 17 Oeste 0.2 -- -- 93
2019-06-21 06:00:00 10.2 5 Noroeste 10 Norte 0 -- -- 89
2019-06-21 05:00:00 10 10 Norte 13 Norte 0 -- -- 92
2019-06-21 04:00:00 9.8 2 Norte 9 Norte 0 -- -- 92
2019-06-21 03:00:00 10.2 3 Oeste 12 Norte 0 -- -- 91
2019-06-21 02:00:00 11.3 8 Norte 13 Norte 0 -- -- 90
2019-06-21 01:00:00 11.4 9 Norte 14 Nordeste 0 -- -- 91
2019-06-21 00:00:00 11.3 4 Nordeste 12 Oeste 0 -- -- 92
2019-06-20 23:00:00 11.2 6 Sudoeste 14 Oeste 0 -- -- 90
2019-06-20 22:00:00 12.7 5 Norte 17 Norte 0 -- -- 80
2019-06-20 21:00:00 14 14 Norte 24 Norte 0 -- -- 71
2019-06-20 20:00:00 15.1 12 Nordeste 28 Norte 0 -- -- 70
2019-06-20 19:00:00 16 17 Norte 26 Norte 0 -- -- 73
2019-06-20 18:00:00 16.1 10 Nordeste 23 Nordeste 0.8 -- -- 72
2019-06-20 17:00:00 14.2 5 Sudoeste 23 Oeste 1 -- -- 87
2019-06-20 16:00:00 15.9 8 Oeste 21 Oeste 0.4 -- -- 78
2019-06-20 15:00:00 20 4 Sudeste 14 Sur 0 -- -- 47
2019-06-20 14:00:00 18.9 6 Este 18 Sudoeste 0 -- -- 57
2019-06-20 13:00:00 18.2 10 Sur 19 Sur 0 -- -- 61
2019-06-20 12:00:00 16.8 6 Sudoeste 15 Oeste 0 -- -- 66
2019-06-20 11:00:00 15.1 6 Sur 14 Sur 0 -- -- 72
2019-06-20 10:00:00 13.6 4 Este 8 Este 0 -- -- 78
2019-06-20 09:00:00 10.9 3 Sudoeste 10 Norte 0 -- -- 88
2019-06-20 08:00:00 10.1 7 Norte 14 Norte 0 -- -- 91
2019-06-20 07:00:00 9.6 10 Norte 15 Norte 0 -- -- 94
2019-06-20 06:00:00 10.2 4 Norte 12 Norte 0 -- -- 93
2019-06-20 05:00:00 10.4 8 Nordeste 19 Norte 0 -- -- 92
2019-06-20 04:00:00 11 12 Norte 16 Norte 0 -- -- 92
2019-06-20 03:00:00 11.1 11 Nordeste 19 Nordeste 0 -- -- 90
2019-06-20 02:00:00 11.7 10 Nordeste 17 Este 0 -- -- 87
2019-06-20 01:00:00 12.4 12 Nordeste 18 Nordeste 0 -- -- 84
2019-06-20 00:00:00 12.9 4 Norte 20 Norte 0 -- -- 82
2019-06-19 23:00:00 14.1 17 Noroeste 33 Noroeste 0 -- -- 74
2019-06-19 22:00:00 14.8 16 Noroeste 32 Noroeste 0 -- -- 71
2019-06-19 21:00:00 16.5 22 Noroeste 38 Noroeste 0 -- -- 64
2019-06-19 20:00:00 17.7 25 Noroeste 39 Noroeste 0 -- -- 60
2019-06-19 19:00:00 18.2 21 Noroeste 37 Noroeste 0 -- -- 61
2019-06-19 18:00:00 19 23 Noroeste 36 Noroeste 0 -- -- 59
2019-06-19 17:00:00 19.5 17 Noroeste 35 Noroeste 0 -- -- 56
2019-06-19 16:00:00 19.8 11 Noroeste 29 Oeste 0 -- -- 57
2019-06-19 15:00:00 18.6 12 Noroeste 32 Oeste 0 -- -- 59
2019-06-19 14:00:00 18.3 14 Noroeste 31 Noroeste 0 -- -- 59
2019-06-19 13:00:00 17.3 17 Noroeste 36 Noroeste 0 -- -- 61
2019-06-19 12:00:00 15.9 10 Noroeste 21 Oeste 0 -- -- 77
2019-06-19 11:00:00 14.7 9 Oeste 20 Oeste 0 -- -- 81
2019-06-19 10:00:00 14.2 9 Oeste 20 Oeste 0 -- -- 84
2019-06-19 09:00:00 13.3 3 Noroeste 10 Noroeste 0 -- -- 87
2019-06-19 08:00:00 12.3 4 Sudoeste 23 Noroeste 0 -- -- 91
2019-06-19 07:00:00 12.2 14 Noroeste 32 Noroeste 0 -- -- 87
2019-06-19 06:00:00 12 12 Noroeste 24 Oeste 0 -- -- 91
2019-06-19 05:00:00 12.4 7 Noroeste 22 Noroeste 0 -- -- 91
2019-06-19 04:00:00 12.6 12 Noroeste 21 Noroeste 0.2 -- -- 93
2019-06-19 03:00:00 12.9 2 Sudoeste 9 Noroeste 0.2 -- -- 95
2019-06-19 02:00:00 12.9 2 Sur 5 Sudoeste 0.6 -- -- 94
2019-06-19 01:00:00 13 3 Noroeste 9 Oeste 0.8 -- -- 94
2019-06-19 00:00:00 13.5 3 Noroeste 14 Noroeste 2 -- -- 92
2019-06-18 23:00:00 13.7 4 Noroeste 13 Sudoeste 2 -- -- 92
2019-06-18 22:00:00 14.6 7 Sudoeste 29 Sudoeste 0.2 -- -- 84
2019-06-18 21:00:00 15.6 5 Sudoeste 28 Sudoeste 0 -- -- 75
2019-06-18 20:00:00 16.1 17 Sudoeste 41 Sudoeste 0 -- -- 74
2019-06-18 19:00:00 16.3 13 Sudoeste 36 Sudoeste 0 -- -- 71
2019-06-18 18:00:00 18.8 14 Sudoeste 41 Sudoeste 0 -- -- 56
2019-06-18 17:00:00 19.9 19 Sudoeste 45 Oeste 0 -- -- 50
2019-06-18 16:00:00 19.6 19 Sudoeste 45 Sudoeste 0 -- -- 55
2019-06-18 15:00:00 19.5 24 Sudoeste 45 Oeste 0 -- -- 54
2019-06-18 14:00:00 19 19 Sudoeste 47 Sudoeste 0 -- -- 52
2019-06-18 13:00:00 21.2 21 Oeste 43 Sudoeste 0 -- -- 45
2019-06-18 12:00:00 21.6 19 Sudoeste 36 Sudoeste 0 -- -- 44
2019-06-18 11:00:00 19.7 10 Sudoeste 25 Sudoeste 0 -- -- 45
2019-06-18 10:00:00 18 9 Sudoeste 21 Sur 0 -- -- 45
2019-06-18 09:00:00 16.1 5 Sudeste 13 Sudeste 0 -- -- 51
2019-06-18 08:00:00 12 8 Nordeste 17 Norte 0 -- -- 68
2019-06-18 07:00:00 10.5 12 Norte 16 Norte 0 -- -- 72
2019-06-18 06:00:00 11.2 12 Norte 15 Norte 0 -- -- 70
2019-06-18 05:00:00 12.2 9 Norte 14 Norte 0 -- -- 69
2019-06-18 04:00:00 13.4 13 Norte 16 Norte 0 -- -- 63
2019-06-18 03:00:00 14.3 12 Norte 16 Norte 0 -- -- 59
2019-06-18 02:00:00 15.6 8 Norte 12 Nordeste 0 -- -- 55
2019-06-18 01:00:00 16.2 5 Nordeste 10 Sur 0 -- -- 55
2019-06-18 00:00:00 17 6 Sudoeste 14 Oeste 0 -- -- 40
2019-06-17 23:00:00 17.1 4 Sudoeste 17 Noroeste 0 -- -- 42
2019-06-17 22:00:00 18.2 10 Noroeste 23 Noroeste 0 -- -- 36
2019-06-17 21:00:00 19.4 8 Oeste 21 Sur 0 -- -- 34
2019-06-17 20:00:00 21.2 10 Sudoeste 31 Sudoeste 0 -- -- 25
2019-06-17 19:00:00 22.2 8 Oeste 30 Noroeste 0 -- -- 25
2019-06-17 18:00:00 21.6 14 Oeste 27 Noroeste 0 -- -- 27
2019-06-17 17:00:00 23.4 14 Oeste 32 Sudoeste 0 -- -- 32
2019-06-17 16:00:00 24.8 10 Sudoeste 37 Sur 0 -- -- 23
2019-06-17 15:00:00 24.7 17 Sudoeste 34 Sur 0 -- -- 23
2019-06-17 14:00:00 24.5 16 Sudoeste 44 Sur 0 -- -- 27
2019-06-17 13:00:00 22.6 13 Sur 31 Sur 0 -- -- 38
2019-06-17 12:00:00 20.9 12 Sur 26 Sudoeste 0 -- -- 45
2019-06-17 11:00:00 19.8 9 Sur 22 Sudeste 0 -- -- 55
2019-06-17 10:00:00 18.3 8 Sudeste 16 Sudeste 0 -- -- 63
2019-06-17 09:00:00 15.7 2 Este 10 Norte 0 -- -- 73
2019-06-17 08:00:00 11.8 10 Norte 16 Norte 0 -- -- 83
2019-06-17 07:00:00 9.8 12 Norte 15 Norte 0 -- -- 89
2019-06-17 06:00:00 10.3 13 Norte 19 Norte 0 -- -- 87
2019-06-17 05:00:00 10.8 10 Norte 14 Norte 0 -- -- 86
2019-06-17 04:00:00 12.3 8 Norte 15 Norte 0 -- -- 82
2019-06-17 03:00:00 12.5 12 Norte 17 Norte 0 -- -- 80
2019-06-17 02:00:00 14.2 9 Norte 18 Norte 0 -- -- 76
2019-06-17 01:00:00 14.8 9 Nordeste 15 Noroeste 0 -- -- 70
2019-06-17 00:00:00 15.1 8 Norte 12 Norte 0 -- -- 66
2019-06-16 23:00:00 17.1 9 Norte 12 Norte 0 -- -- 59
2019-06-16 22:00:00 19.9 11 Noroeste 21 Noroeste 0 -- -- 45
2019-06-16 21:00:00 21.5 8 Oeste 15 Sur 0 -- -- 39
2019-06-16 20:00:00 22.7 6 Sur 23 Este 0 -- -- 32
2019-06-16 19:00:00 23.7 9 Sur 21 Sudoeste 0 -- -- 31
2019-06-16 18:00:00 23.7 7 Sur 23 Sur 0 -- -- 32
2019-06-16 17:00:00 24 6 Sudeste 21 Sudoeste 0 -- -- 32
2019-06-16 16:00:00 22.6 5 Nordeste 23 Sudoeste 0 -- -- 33
2019-06-16 15:00:00 22.9 10 Sudoeste 25 Este 0 -- -- 32
2019-06-16 14:00:00 22 9 Sur 21 Sur 0 -- -- 36
2019-06-16 13:00:00 20.3 7 Sudoeste 18 Sur 0 -- -- 39
2019-06-16 12:00:00 18.6 7 Sudeste 18 Sur 0 -- -- 47
2019-06-16 11:00:00 16.8 8 Sur 18 Sudeste 0 -- -- 55
2019-06-16 10:00:00 14.8 4 Sur 11 Sur 0 -- -- 64
2019-06-16 09:00:00 11.1 2 Oeste 10 Norte 0 -- -- 78
2019-06-16 08:00:00 8.4 9 Norte 14 Norte 0 -- -- 87
2019-06-16 07:00:00 6.7 12 Norte 14 Nordeste 0 -- -- 94
2019-06-16 06:00:00 6.7 9 Norte 14 Nordeste 0 -- -- 92
2019-06-16 05:00:00 7.8 7 Norte 12 Nordeste 0 -- -- 91
2019-06-16 04:00:00 8.4 9 Norte 14 Norte 0 -- -- 85
2019-06-16 03:00:00 10.3 11 Nordeste 17 Nordeste 0 -- -- 80
2019-06-16 02:00:00 11 8 Norte 17 Norte 0 -- -- 74
2019-06-16 01:00:00 11.5 9 Norte 26 Noroeste 0 -- -- 71
2019-06-16 00:00:00 12.8 8 Noroeste 25 Noroeste 0 -- -- 64
2019-06-15 23:00:00 13.9 8 Noroeste 21 Noroeste 0 -- -- 60
2019-06-15 22:00:00 15 15 Noroeste 29 Noroeste 0 -- -- 57
2019-06-15 21:00:00 17.3 16 Noroeste 31 Noroeste 0 -- -- 51
2019-06-15 20:00:00 18.9 16 Noroeste 32 Noroeste 0 -- -- 46
2019-06-15 19:00:00 19.8 17 Oeste 31 Noroeste 0 -- -- 44
2019-06-15 18:00:00 19.4 8 Nordeste 23 Oeste 0 -- -- 45
2019-06-15 17:00:00 19.2 8 Este 19 Noroeste 0 -- -- 44
2019-06-15 16:00:00 18.5 10 Noroeste 24 Noroeste 0 -- -- 46
2019-06-15 15:00:00 17 8 Noroeste 23 Oeste 0 -- -- 49
2019-06-15 14:00:00 15.6 12 Oeste 27 Oeste 0 -- -- 51
2019-06-15 13:00:00 14.2 10 Noroeste 31 Noroeste 0 -- -- 55
2019-06-15 12:00:00 13 13 Noroeste 34 Noroeste 0 -- -- 56
2019-06-15 11:00:00 11.9 18 Noroeste 31 Noroeste 0 -- -- 60
2019-06-15 10:00:00 11.2 15 Noroeste 27 Noroeste 0 -- -- 65
2019-06-15 09:00:00 10.1 6 Noroeste 17 Nordeste 0 -- -- 72
2019-06-15 08:00:00 7.7 12 Nordeste 23 Nordeste 0 -- -- 87
2019-06-15 07:00:00 6.8 15 Nordeste 21 Nordeste 0 -- -- 91
2019-06-15 06:00:00 6.8 6 Nordeste 17 Noroeste 0 -- -- 90
2019-06-15 05:00:00 7.6 8 Noroeste 29 Noroeste 0 -- -- 79
2019-06-15 04:00:00 8.4 17 Noroeste 33 Noroeste 0 -- -- 76
2019-06-15 03:00:00 8.5 19 Noroeste 35 Noroeste 0 -- -- 77
2019-06-15 02:00:00 8 9 Nordeste 17 Norte 0 -- -- 84
2019-06-15 01:00:00 9.3 11 Norte 40 Noroeste 0 -- -- 79
2019-06-15 00:00:00 9.7 18 Noroeste 43 Noroeste 0 -- -- 74
2019-06-14 23:00:00 10.5 24 Noroeste 44 Noroeste 0 -- -- 68
2019-06-14 22:00:00 12.1 25 Noroeste 43 Noroeste 0 -- -- 60
2019-06-14 21:00:00 13.8 25 Noroeste 48 Noroeste 0 -- -- 53
2019-06-14 20:00:00 15.8 29 Noroeste 50 Noroeste 0 -- -- 47
2019-06-14 19:00:00 16.2 27 Noroeste 46 Noroeste 0 -- -- 44
2019-06-14 18:00:00 17.2 26 Noroeste 42 Noroeste 0 -- -- 44
2019-06-14 17:00:00 18 27 Noroeste 45 Noroeste 0 -- -- 45
2019-06-14 16:00:00 18.3 21 Oeste 42 Oeste 0 -- -- 44
2019-06-14 15:00:00 18 19 Noroeste 33 Noroeste 0 -- -- 46
2019-06-14 14:00:00 17.8 11 Oeste 19 Oeste 0 -- -- 48
2019-06-14 13:00:00 16.6 10 Oeste 21 Oeste 0 -- -- 46
2019-06-14 12:00:00 15.5 10 Noroeste 24 Oeste 0 -- -- 50
2019-06-14 11:00:00 15 8 Sudoeste 15 Oeste 0 -- -- 52
2019-06-14 10:00:00 12.3 3 Este 5 Este 0 -- -- 67
2019-06-14 09:00:00 9.1 2 Sudoeste 9 Norte 0 -- -- 76
2019-06-14 08:00:00 6.6 6 Norte 12 Norte 0 -- -- 89
2019-06-14 07:00:00 4.4 12 Norte 14 Norte 0 -- -- 94
2019-06-14 06:00:00 5.1 10 Norte 14 Norte 0 -- -- 91
2019-06-14 05:00:00 5.5 10 Norte 17 Sudeste 0 -- -- 87
2019-06-14 04:00:00 6.2 6 Sudeste 16 Sur 0 -- -- 79
2019-06-14 03:00:00 8 3 Norte 15 Norte 0 -- -- 76
2019-06-14 02:00:00 8.8 11 Norte 17 Norte 0 -- -- 77
2019-06-14 01:00:00 8.6 10 Norte 16 Norte 0 -- -- 76
2019-06-14 00:00:00 9.4 12 Norte 18 Norte 0 -- -- 70
2019-06-13 23:00:00 11.1 10 Nordeste 23 Noroeste 0 -- -- 64
2019-06-13 22:00:00 12.4 13 Noroeste 35 Noroeste 0 -- -- 54
2019-06-13 21:00:00 14.3 23 Noroeste 39 Oeste 0 -- -- 48
2019-06-13 20:00:00 15.6 27 Noroeste 45 Noroeste 0 -- -- 46
2019-06-13 19:00:00 16.9 26 Noroeste 40 Oeste 0 -- -- 45
2019-06-13 18:00:00 17.6 24 Noroeste 40 Noroeste 0 -- -- 42
2019-06-13 17:00:00 18.8 17 Oeste 33 Oeste 0 -- -- 41
2019-06-13 16:00:00 18.6 8 Noroeste 27 Norte 0 -- -- 41
2019-06-13 15:00:00 17.4 7 Sur 29 Sudoeste 0 -- -- 41
2019-06-13 14:00:00 17.4 12 Sudoeste 28 Sudoeste 0 -- -- 42
2019-06-13 13:00:00 15.7 11 Sur 24 Sur 0 -- -- 45
2019-06-13 12:00:00 14.5 5 Sur 18 Sudoeste 0 -- -- 51
2019-06-13 11:00:00 13.3 3 Nordeste 10 Oeste 0 -- -- 60
2019-06-13 10:00:00 11.1 9 Oeste 16 Oeste 0 -- -- 69
2019-06-13 09:00:00 9.1 6 Noroeste 20 Norte 0 -- -- 77
2019-06-13 08:00:00 7.2 13 Norte 20 Norte 0 -- -- 89
2019-06-13 07:00:00 5 9 Norte 15 Norte 0 -- -- 93
2019-06-13 06:00:00 5.4 8 Norte 13 Norte 0 -- -- 91
2019-06-13 05:00:00 6.1 4 Norte 13 Norte 0 -- -- 90
2019-06-13 04:00:00 6.6 9 Norte 19 Norte 0 -- -- 87
2019-06-13 03:00:00 7.4 12 Norte 21 Norte 0 -- -- 83
2019-06-13 02:00:00 7.8 9 Norte 22 Norte 0 -- -- 80
2019-06-13 01:00:00 8.7 10 Nordeste 18 Nordeste 0 -- -- 75
2019-06-13 00:00:00 9.7 5 Norte 23 Oeste 0 -- -- 66
2019-06-12 23:00:00 10.7 17 Noroeste 31 Noroeste 0 -- -- 57
2019-06-12 22:00:00 12.4 17 Noroeste 31 Noroeste 0 -- -- 51
2019-06-12 21:00:00 13.9 19 Noroeste 34 Oeste 0 -- -- 46
2019-06-12 20:00:00 15.4 21 Oeste 32 Oeste 0 -- -- 43
2019-06-12 19:00:00 16.8 15 Noroeste 28 Noroeste 0 -- -- 39
2019-06-12 18:00:00 17.3 16 Oeste 30 Oeste 0 -- -- 37
2019-06-12 17:00:00 17.4 11 Oeste 27 Noroeste 0 -- -- 37
2019-06-12 16:00:00 16.2 15 Oeste 28 Noroeste 0 -- -- 37
2019-06-12 15:00:00 15.2 9 Oeste 29 Oeste 0 -- -- 37
2019-06-12 14:00:00 13.9 14 Oeste 27 Oeste 0 -- -- 41
2019-06-12 13:00:00 13 14 Oeste 28 Oeste 0 -- -- 51
2019-06-12 12:00:00 11 6 Noroeste 22 Norte 0 -- -- 58
2019-06-12 11:00:00 9 15 Norte 27 Noroeste 0 -- -- 63
2019-06-12 10:00:00 7.3 17 Noroeste 40 Noroeste 0 -- -- 74
2019-06-12 09:00:00 5.5 14 Noroeste 24 Noroeste 0 -- -- 81
2019-06-12 08:00:00 4.5 13 Nordeste 19 Nordeste 0 -- -- 91
2019-06-12 07:00:00 3.2 8 Nordeste 13 Norte 0 -- -- 94
2019-06-12 06:00:00 2.7 4 Este 11 Sudeste 0 -- -- 93
2019-06-12 05:00:00 2.3 3 Norte 6 Nordeste 0 -- -- 93
2019-06-12 04:00:00 3 3 Norte 10 Norte 0 -- -- 91
2019-06-12 03:00:00 3.5 2 Oeste 15 Norte 0 -- -- 84
2019-06-12 02:00:00 4.9 12 Norte 18 Norte 0 -- -- 86
2019-06-12 01:00:00 5.3 11 Norte 17 Norte 0 -- -- 81
2019-06-12 00:00:00 6.6 10 Norte 15 Norte 0 -- -- 78
2019-06-11 23:00:00 7.5 5 Norte 27 Norte 0 -- -- 66
2019-06-11 22:00:00 8.9 17 Nordeste 37 Norte 0 -- -- 65
2019-06-11 21:00:00 10.2 28 Norte 37 Nordeste 0 -- -- 62
2019-06-11 20:00:00 10.6 25 Nordeste 45 Nordeste 0 -- -- 60
2019-06-11 19:00:00 12.3 18 Norte 33 Norte 0 -- -- 57
2019-06-11 18:00:00 12.1 22 Norte 47 Nordeste 0 -- -- 52
2019-06-11 17:00:00 12.4 21 Nordeste 40 Nordeste 0 -- -- 57
2019-06-11 16:00:00 11.9 19 Norte 37 Norte 0 -- -- 52
2019-06-11 15:00:00 12 28 Nordeste 42 Norte 0 -- -- 58
2019-06-11 14:00:00 11.1 29 Norte 46 Norte 0 -- -- 53
2019-06-11 13:00:00 10.9 23 Norte 43 Norte 0 -- -- 51
2019-06-11 12:00:00 9.9 27 Norte 42 Norte 0 -- -- 60
2019-06-11 11:00:00 8.9 24 Norte 37 Norte 0 -- -- 64
2019-06-11 10:00:00 8.3 22 Norte 42 Norte 0 -- -- 63
2019-06-11 09:00:00 7.8 12 Norte 21 Norte 0 -- -- 71
2019-06-11 08:00:00 6.5 10 Norte 17 Norte 0 -- -- 88
2019-06-11 07:00:00 4.9 9 Norte 22 Norte 0 -- -- 88
2019-06-11 06:00:00 5.9 14 Norte 19 Norte 0 -- -- 87
2019-06-11 05:00:00 5.6 8 Noroeste 13 Noroeste 0 -- -- 80
2019-06-11 04:00:00 7.3 12 Norte 17 Norte 0 -- -- 77
2019-06-11 03:00:00 8.2 11 Nordeste 20 Norte 0 -- -- 74
2019-06-11 02:00:00 8.6 12 Norte 23 Nordeste 0 -- -- 72
2019-06-11 01:00:00 9.8 9 Nordeste 23 Nordeste 0 -- -- 70
2019-06-11 00:00:00 10.2 13 Nordeste 21 Nordeste 0 -- -- 73
2019-06-10 23:00:00 10.6 14 Nordeste 26 Nordeste 0 -- -- 74
2019-06-10 22:00:00 12.1 15 Norte 28 Nordeste 0 -- -- 68
2019-06-10 21:00:00 13.3 14 Noroeste 35 Oeste 0 -- -- 56
2019-06-10 20:00:00 14.6 26 Noroeste 44 Oeste 0 -- -- 48
2019-06-10 19:00:00 15.4 24 Oeste 40 Oeste 0 -- -- 48
2019-06-10 18:00:00 17.4 17 Noroeste 37 Noroeste 0 -- -- 41
2019-06-10 17:00:00 15 21 Noroeste 42 Noroeste 0 -- -- 50
2019-06-10 16:00:00 14.4 25 Noroeste 39 Oeste 0 -- -- 53
2019-06-10 15:00:00 14.6 23 Noroeste 41 Oeste 0 -- -- 50
2019-06-10 14:00:00 15.1 17 Oeste 39 Oeste 0 -- -- 51
2019-06-10 13:00:00 13.5 15 Oeste 31 Noroeste 0 -- -- 58
2019-06-10 12:00:00 11.6 17 Oeste 32 Oeste 0 -- -- 62
2019-06-10 11:00:00 11.1 17 Oeste 30 Noroeste 0 -- -- 71
2019-06-10 10:00:00 9.9 10 Noroeste 21 Noroeste 0 -- -- 74
2019-06-10 09:00:00 8.3 9 Norte 20 Norte 0 -- -- 84
2019-06-10 08:00:00 6.5 3 Oeste 14 Norte 0 -- -- 91
2019-06-10 07:00:00 4.8 3 Norte 12 Norte 0 -- -- 96
2019-06-10 06:00:00 4.8 6 Norte 15 Norte 0 -- -- 96
2019-06-10 05:00:00 4.8 8 Norte 13 Norte 0 -- -- 95
2019-06-10 04:00:00 4.7 9 Norte 13 Norte 0 -- -- 94
2019-06-10 03:00:00 5.9 6 Norte 9 Norte 0 -- -- 90
2019-06-10 02:00:00 6.9 3 Norte 13 Norte 0 -- -- 84
2019-06-10 01:00:00 7.8 5 Nordeste 9 Nordeste 0 -- -- 85
2019-06-10 00:00:00 8.6 5 Sur 14 Nordeste 0 -- -- 73
2019-06-09 23:00:00 10.6 9 Nordeste 17 Norte 0 -- -- 69
2019-06-09 22:00:00 12.1 9 Norte 24 Noroeste 0 -- -- 62
2019-06-09 21:00:00 14.4 18 Norte 35 Norte 0 -- -- 54
2019-06-09 20:00:00 16.2 19 Noroeste 46 Noroeste 0 -- -- 51
2019-06-09 19:00:00 16.7 30 Noroeste 49 Noroeste 0 -- -- 49
2019-06-09 18:00:00 17.5 26 Noroeste 44 Noroeste 0 -- -- 47
2019-06-09 17:00:00 17.1 19 Noroeste 43 Noroeste 0 -- -- 47
2019-06-09 16:00:00 16.9 26 Noroeste 39 Noroeste 0 -- -- 48
2019-06-09 15:00:00 16.4 24 Noroeste 40 Noroeste 0 -- -- 39
2019-06-09 14:00:00 15.9 22 Noroeste 41 Oeste 0 -- -- 39
2019-06-09 13:00:00 14.8 22 Oeste 37 Oeste 0 -- -- 49
2019-06-09 12:00:00 13.1 21 Oeste 36 Oeste 0 -- -- 64
2019-06-09 11:00:00 12.4 13 Noroeste 30 Oeste 0 -- -- 68
2019-06-09 10:00:00 10.8 9 Noroeste 21 Noroeste 0 -- -- 77
2019-06-09 09:00:00 9.8 5 Sudoeste 19 Norte 0 -- -- 83
2019-06-09 08:00:00 8.2 10 Norte 22 Norte 0 -- -- 89
2019-06-09 07:00:00 8.4 2 Sudeste 18 Norte 0 -- -- 86
2019-06-09 06:00:00 8.8 8 Nordeste 15 Norte 0 -- -- 88
2019-06-09 05:00:00 8.5 10 Norte 14 Norte 0 -- -- 90
2019-06-09 04:00:00 9 9 Norte 14 Norte 0 -- -- 87
2019-06-09 03:00:00 9.6 10 Norte 20 Norte 0 -- -- 84
2019-06-09 02:00:00 10.7 16 Norte 22 Norte 0 -- -- 81
2019-06-09 01:00:00 11.4 6 Nordeste 16 Nordeste 0 -- -- 77
2019-06-09 00:00:00 12.1 7 Nordeste 22 Norte 0 -- -- 75
2019-06-08 23:00:00 12.1 14 Noroeste 34 Noroeste 0 -- -- 72
2019-06-08 22:00:00 13.4 9 Noroeste 17 Noroeste 0 -- -- 66
2019-06-08 21:00:00 14.2 12 Noroeste 31 Noroeste 0 -- -- 61
2019-06-08 20:00:00 16 18 Noroeste 31 Noroeste 0 -- -- 54
2019-06-08 19:00:00 17.8 5 Sudeste 16 Sur 0 -- -- 40
2019-06-08 18:00:00 18 7 Sudoeste 18 Sur 0 -- -- 39
2019-06-08 17:00:00 18.1 5 Noroeste 19 Sudoeste 0 -- -- 41
2019-06-08 16:00:00 17.7 8 Sudoeste 25 Sudoeste 0 -- -- 39
2019-06-08 15:00:00 17.6 8 Sudoeste 18 Sudoeste 0 -- -- 42
2019-06-08 14:00:00 15.6 7 Sur 19 Sur 0 -- -- 46
2019-06-08 13:00:00 13.7 7 Sudoeste 16 Sur 0 -- -- 53
2019-06-08 12:00:00 11.9 8 Sudeste 17 Sudeste 0 -- -- 61
2019-06-08 11:00:00 10.2 6 Sur 18 Sur 0 -- -- 70
2019-06-08 10:00:00 8.5 8 Sudeste 17 Sudeste 0 -- -- 79
2019-06-08 09:00:00 5.4 0 Calma 12 Norte 0 -- -- 89
2019-06-08 08:00:00 4.1 8 Norte 13 Norte 0 -- -- 94
2019-06-08 07:00:00 3.3 12 Norte 16 Norte 0 -- -- 97
2019-06-08 06:00:00 4 12 Norte 19 Norte 0 -- -- 93
2019-06-08 05:00:00 4.6 9 Norte 14 Norte 0 -- -- 93
2019-06-08 04:00:00 5.4 13 Norte 21 Norte 0 -- -- 89
2019-06-08 03:00:00 5.4 16 Norte 21 Norte 0 -- -- 95
2019-06-08 02:00:00 5.2 11 Norte 17 Norte 0 -- -- 94
2019-06-08 01:00:00 5.5 10 Nordeste 14 Nordeste 0 -- -- 90
2019-06-08 00:00:00 5.9 6 Nordeste 16 Nordeste 0 -- -- 91
2019-06-07 23:00:00 6.7 10 Nordeste 26 Noroeste 0 -- -- 88
2019-06-07 22:00:00 7.7 9 Nordeste 29 Noroeste 0 -- -- 83
2019-06-07 21:00:00 8.5 15 Norte 27 Norte 0 -- -- 81
2019-06-07 20:00:00 9.4 13 Noroeste 46 Noroeste 0 -- -- 69
2019-06-07 19:00:00 9.3 26 Norte 41 Noroeste 0 -- -- 75
2019-06-07 18:00:00 11.2 23 Noroeste 39 Noroeste 0 -- -- 58
2019-06-07 17:00:00 10 21 Noroeste 49 Oeste 0 -- -- 68
2019-06-07 16:00:00 11.9 22 Noroeste 42 Noroeste 0 -- -- 55
2019-06-07 15:00:00 10.1 21 Oeste 40 Oeste 0 -- -- 63
2019-06-07 14:00:00 9.8 27 Oeste 47 Oeste 0 -- -- 68
2019-06-07 13:00:00 8.4 28 Noroeste 46 Noroeste 0 -- -- 71
2019-06-07 12:00:00 6.9 23 Noroeste 41 Noroeste 0 -- -- 85
2019-06-07 11:00:00 6.1 18 Oeste 37 Oeste 0 -- -- 83
2019-06-07 10:00:00 5.5 21 Noroeste 38 Noroeste 0.2 -- -- 88
2019-06-07 09:00:00 5 22 Noroeste 48 Noroeste 0 -- -- 88
2019-06-07 08:00:00 4.2 28 Noroeste 49 Noroeste 0 -- -- 92
2019-06-07 07:00:00 4.1 27 Noroeste 49 Noroeste 0 -- -- 92
2019-06-07 06:00:00 4.1 32 Noroeste 53 Oeste 0.2 -- -- 93
2019-06-07 05:00:00 3.9 27 Noroeste 57 Noroeste 0.2 -- -- 91
2019-06-07 04:00:00 4.5 24 Noroeste 45 Oeste 0.4 -- -- 94
2019-06-07 03:00:00 5 22 Oeste 41 Oeste 0 -- -- 94
2019-06-07 02:00:00 5 19 Noroeste 53 Oeste 0.2 -- -- 93
2019-06-07 01:00:00 5.5 17 Oeste 40 Noroeste 0 -- -- 92
2019-06-07 00:00:00 5.7 15 Noroeste 47 Oeste 0.2 -- -- 91
2019-06-06 23:00:00 6.3 10 Oeste 29 Noroeste 0 -- -- 92
2019-06-06 22:00:00 7 15 Oeste 39 Noroeste 0 -- -- 89
2019-06-06 21:00:00 8 23 Noroeste 68 Noroeste 3.6 -- -- 93
2019-06-06 20:00:00 9.6 16 Sudoeste 41 Sur 0.8 -- -- 93
2019-06-06 19:00:00 9.6 18 Sudoeste 42 Sudoeste 0.8 -- -- 92
2019-06-06 18:00:00 11.1 18 Sudoeste 46 Oeste 0 -- -- 75
2019-06-06 17:00:00 12.5 17 Sudoeste 42 Sudoeste 0 -- -- 58
2019-06-06 16:00:00 11.5 23 Sudoeste 48 Sudoeste 0 -- -- 59
2019-06-06 15:00:00 12 19 Sudoeste 44 Sudoeste 0 -- -- 53
2019-06-06 14:00:00 11.5 11 Sudoeste 36 Sudoeste 0 -- -- 55
2019-06-06 13:00:00 11.6 18 Sudoeste 42 Sudoeste 0 -- -- 57
2019-06-06 12:00:00 11.4 12 Sudoeste 34 Sudoeste 0 -- -- 58
2019-06-06 11:00:00 8.1 7 Sudoeste 22 Sudoeste 0 -- -- 72
2019-06-06 10:00:00 7.3 10 Sur 22 Sur 0 -- -- 75
2019-06-06 09:00:00 6.1 0 Calma 4 Sudoeste 0 -- -- 83
2019-06-06 08:00:00 3.8 2 Sudoeste 4 Oeste 0 -- -- 93
2019-06-06 07:00:00 1.9 3 Sudoeste 10 Norte 0 -- -- 93
2019-06-06 06:00:00 3.2 9 Nordeste 14 Nordeste 0 -- -- 95
2019-06-06 05:00:00 3.6 8 Norte 12 Norte 0 -- -- 96
2019-06-06 04:00:00 3.8 10 Norte 13 Norte 0 -- -- 95
2019-06-06 03:00:00 3.8 4 Sur 9 Sur 0 -- -- 90
2019-06-06 02:00:00 4.2 5 Noroeste 12 Norte 0 -- -- 89
2019-06-06 01:00:00 5.1 4 Norte 9 Este 0 -- -- 86
2019-06-06 00:00:00 5.5 0 Calma 16 Norte 0 -- -- 82
2019-06-05 23:00:00 6.8 12 Norte 36 Norte 0 -- -- 80
2019-06-05 22:00:00 7.1 15 Noroeste 29 Noroeste 0 -- -- 76
2019-06-05 21:00:00 7.4 19 Noroeste 51 Noroeste 0 -- -- 77
2019-06-05 20:00:00 8.5 23 Noroeste 50 Noroeste 0 -- -- 72
2019-06-05 19:00:00 11.1 16 Noroeste 35 Noroeste 0 -- -- 58
2019-06-05 18:00:00 10.2 24 Oeste 49 Noroeste 0 -- -- 65
2019-06-05 17:00:00 12.3 27 Noroeste 51 Norte 0 -- -- 57
2019-06-05 16:00:00 10.7 28 Norte 50 Norte 0 -- -- 62
2019-06-05 15:00:00 11.3 28 Noroeste 60 Noroeste 0 -- -- 54
2019-06-05 14:00:00 11.4 26 Noroeste 53 Noroeste 0 -- -- 57
2019-06-05 13:00:00 10 25 Noroeste 49 Noroeste 0 -- -- 72
2019-06-05 12:00:00 10.4 25 Noroeste 46 Noroeste 0 -- -- 62
2019-06-05 11:00:00 8.4 23 Noroeste 41 Noroeste 0 -- -- 72
2019-06-05 10:00:00 7.8 23 Noroeste 38 Oeste 0 -- -- 75
2019-06-05 09:00:00 7.4 22 Noroeste 41 Norte 0 -- -- 80
2019-06-05 08:00:00 6.6 17 Noroeste 32 Norte 0 -- -- 84
2019-06-05 07:00:00 5.8 11 Norte 22 Noroeste 0 -- -- 90
2019-06-05 06:00:00 6.4 11 Norte 19 Norte 0 -- -- 90
2019-06-05 05:00:00 5.9 5 Norte 24 Noroeste 0 -- -- 89
2019-06-05 04:00:00 6.8 8 Noroeste 15 Nordeste 0 -- -- 88
2019-06-05 03:00:00 7.1 4 Norte 22 Oeste 0 -- -- 88
2019-06-05 02:00:00 7.3 3 Nordeste 23 Norte 0 -- -- 86
2019-06-05 01:00:00 8 10 Norte 26 Noroeste 0 -- -- 78
2019-06-05 00:00:00 8.6 17 Noroeste 31 Noroeste 0 -- -- 77
2019-06-04 23:00:00 9.8 14 Noroeste 27 Noroeste 0 -- -- 71
2019-06-04 22:00:00 11.3 14 Noroeste 39 Noroeste 0 -- -- 65
2019-06-04 21:00:00 12.9 15 Noroeste 37 Noroeste 0 -- -- 58
2019-06-04 20:00:00 14.8 20 Noroeste 39 Noroeste 0 -- -- 51
2019-06-04 19:00:00 15.3 21 Noroeste 41 Noroeste 0 -- -- 55
2019-06-04 18:00:00 14.8 24 Noroeste 42 Noroeste 0 -- -- 54
2019-06-04 17:00:00 13.2 25 Noroeste 55 Noroeste 0 -- -- 61
2019-06-04 16:00:00 13.8 30 Noroeste 59 Noroeste 0 -- -- 58
2019-06-04 15:00:00 14.1 38 Noroeste 60 Noroeste 0 -- -- 64
2019-06-04 14:00:00 16 26 Noroeste 48 Noroeste 0 -- -- 65
2019-06-04 13:00:00 15.1 28 Noroeste 45 Oeste 0 -- -- 69
2019-06-04 12:00:00 14.2 22 Noroeste 31 Noroeste 0 -- -- 70
2019-06-04 11:00:00 13.7 21 Noroeste 36 Noroeste 0 -- -- 70
2019-06-04 10:00:00 12.6 16 Noroeste 35 Noroeste 0 -- -- 74
2019-06-04 09:00:00 11.5 23 Noroeste 41 Noroeste 0 -- -- 77
2019-06-04 08:00:00 10.9 12 Noroeste 26 Noroeste 0 -- -- 85
2019-06-04 07:00:00 10.9 15 Noroeste 28 Noroeste 0 -- -- 83
2019-06-04 06:00:00 11.3 15 Noroeste 27 Noroeste 0 -- -- 86
2019-06-04 05:00:00 11.8 13 Noroeste 29 Noroeste 0 -- -- 86
2019-06-04 04:00:00 12.8 14 Noroeste 27 Noroeste 0 -- -- 84
2019-06-04 03:00:00 13.5 7 Este 15 Noroeste 0 -- -- 86
2019-06-04 02:00:00 14.1 8 Noroeste 27 Noroeste 0 -- -- 82
2019-06-04 01:00:00 14.8 14 Noroeste 30 Noroeste 0 -- -- 81
2019-06-04 00:00:00 15.8 18 Noroeste 27 Noroeste 0 -- -- 77
2019-06-03 23:00:00 16.8 14 Noroeste 24 Noroeste 0 -- -- 72
2019-06-03 22:00:00 18.3 12 Noroeste 29 Oeste 0 -- -- 66
2019-06-03 21:00:00 20 22 Noroeste 36 Noroeste 0 -- -- 60
2019-06-03 20:00:00 21.8 21 Noroeste 46 Noroeste 0 -- -- 53
2019-06-03 19:00:00 23.1 25 Noroeste 42 Noroeste 0 -- -- 49
2019-06-03 18:00:00 24.5 22 Noroeste 36 Oeste 0 -- -- 47
2019-06-03 17:00:00 25.7 18 Oeste 31 Oeste 0 -- -- 44
2019-06-03 16:00:00 25.3 10 Oeste 23 Noroeste 0 -- -- 42
2019-06-03 15:00:00 23.6 10 Noroeste 20 Oeste 0 -- -- 47
2019-06-03 14:00:00 22.8 9 Oeste 33 Noroeste 0 -- -- 48
2019-06-03 13:00:00 21.5 9 Oeste 30 Oeste 0 -- -- 51
2019-06-03 12:00:00 20.4 9 Oeste 27 Noroeste 0 -- -- 53
2019-06-03 11:00:00 18.2 17 Noroeste 26 Noroeste 0 -- -- 47
2019-06-03 10:00:00 17.1 12 Noroeste 18 Noroeste 0 -- -- 55
2019-06-03 09:00:00 14.7 8 Noroeste 14 Nordeste 0 -- -- 64
2019-06-03 08:00:00 14.1 6 Norte 18 Norte 0 -- -- 68
2019-06-03 07:00:00 13.1 12 Noroeste 16 Noroeste 0 -- -- 69
2019-06-03 06:00:00 14.5 5 Noroeste 19 Noroeste 0 -- -- 61
2019-06-03 05:00:00 15.6 14 Noroeste 24 Noroeste 0 -- -- 56
2019-06-03 04:00:00 15.9 14 Norte 25 Norte 0 -- -- 57
2019-06-03 03:00:00 16.7 14 Noroeste 28 Noroeste 0 -- -- 52
2019-06-03 02:00:00 17.6 14 Noroeste 25 Noroeste 0 -- -- 48
2019-06-03 01:00:00 18.3 14 Noroeste 26 Noroeste 0 -- -- 38
2019-06-03 00:00:00 18.6 8 Noroeste 23 Noroeste 0 -- -- 44
2019-06-02 23:00:00 19.6 15 Noroeste 27 Noroeste 0 -- -- 34
2019-06-02 22:00:00 20.4 15 Noroeste 27 Noroeste 0 -- -- 42
2019-06-02 21:00:00 21.4 13 Noroeste 29 Noroeste 0 -- -- 39
2019-06-02 20:00:00 22.7 13 Noroeste 26 Noroeste 0 -- -- 34
2019-06-02 19:00:00 23 14 Noroeste 37 Noroeste 0 -- -- 33
2019-06-02 18:00:00 23.7 23 Noroeste 40 Noroeste 0 -- -- 31
2019-06-02 17:00:00 24.1 22 Noroeste 38 Norte 0 -- -- 32
2019-06-02 16:00:00 24.7 22 Noroeste 45 Noroeste 0 -- -- 30
2019-06-02 15:00:00 25.1 25 Noroeste 45 Noroeste 0 -- -- 26
2019-06-02 14:00:00 24 27 Noroeste 46 Noroeste 0 -- -- 26
2019-06-02 13:00:00 23.5 22 Noroeste 37 Noroeste 0 -- -- 30
2019-06-02 12:00:00 23.3 15 Oeste 30 Oeste 0 -- -- 31
2019-06-02 11:00:00 22.2 12 Oeste 26 Oeste 0 -- -- 29
2019-06-02 10:00:00 19.7 4 Sur 9 Sudoeste 0 -- -- 52
2019-06-02 09:00:00 17.4 4 Nordeste 17 Norte 0 -- -- 58
2019-06-02 08:00:00 13.3 13 Norte 17 Norte 0 -- -- 70
2019-06-02 07:00:00 12.7 9 Norte 14 Nordeste 0 -- -- 77
2019-06-02 06:00:00 15.5 9 Nordeste 14 Nordeste 0 -- -- 63
2019-06-02 05:00:00 15.4 9 Nordeste 15 Nordeste 0 -- -- 60
2019-06-02 04:00:00 15.5 8 Nordeste 18 Nordeste 0 -- -- 61
2019-06-02 03:00:00 16.8 9 Nordeste 14 Nordeste 0 -- -- 63
2019-06-02 02:00:00 18.9 10 Noroeste 20 Noroeste 0 -- -- 51
2019-06-02 01:00:00 18.1 11 Nordeste 14 Noroeste 0 -- -- 53
2019-06-02 00:00:00 18.9 7 Nordeste 30 Noroeste 0 -- -- 48
2019-06-01 23:00:00 22.8 19 Noroeste 34 Noroeste 0 -- -- 33
2019-06-01 22:00:00 24 21 Noroeste 33 Noroeste 0 -- -- 33
2019-06-01 21:00:00 25.8 21 Noroeste 35 Noroeste 0 -- -- 37
2019-06-01 20:00:00 28 14 Noroeste 28 Noroeste 0 -- -- 32
2019-06-01 19:00:00 28.6 18 Noroeste 36 Oeste 0 -- -- 29
2019-06-01 18:00:00 28.2 17 Noroeste 32 Noroeste 0 -- -- 31
2019-06-01 17:00:00 29.3 15 Oeste 33 Oeste 0 -- -- 29
2019-06-01 16:00:00 29 8 Noroeste 34 Oeste 0 -- -- 30
2019-06-01 15:00:00 28.4 15 Oeste 30 Oeste 0 -- -- 30
2019-06-01 14:00:00 27.6 12 Oeste 30 Noroeste 0 -- -- 29
2019-06-01 13:00:00 26.4 17 Noroeste 32 Noroeste 0 -- -- 30
2019-06-01 12:00:00 25.4 5 Sudeste 13 Sudoeste 0 -- -- 34
2019-06-01 11:00:00 23.4 5 Sur 13 Sur 0 -- -- 40
2019-06-01 10:00:00 20.8 3 Sudoeste 9 Sur 0 -- -- 49
2019-06-01 09:00:00 17.9 3 Sudoeste 13 Norte 0 -- -- 60
2019-06-01 08:00:00 14.9 11 Norte 17 Norte 0 -- -- 66
2019-06-01 07:00:00 13.1 14 Norte 18 Norte 0 -- -- 70
2019-06-01 06:00:00 13.4 14 Norte 23 Norte 0 -- -- 70
2019-06-01 05:00:00 13.7 14 Norte 17 Norte 0 -- -- 67
2019-06-01 04:00:00 14.1 14 Norte 18 Norte 0 -- -- 67
2019-06-01 03:00:00 14.8 15 Norte 20 Norte 0 -- -- 64
2019-06-01 02:00:00 15.2 14 Norte 21 Norte 0 -- -- 63
2019-06-01 01:00:00 16.5 4 Nordeste 14 Nordeste 0 -- -- 65
2019-06-01 00:00:00 17.1 13 Norte 18 Norte 0 -- -- 54
2019-05-31 23:00:00 18.3 13 Norte 15 Norte 0 -- -- 48
2019-05-31 22:00:00 20.7 8 Nordeste 10 Nordeste 0 -- -- 54
2019-05-31 21:00:00 26.9 0 Calma 14 Sudoeste 0 -- -- 33
2019-05-31 20:00:00 29.4 5 Oeste 18 Oeste 0 -- -- 26
2019-05-31 19:00:00 29.4 10 Sudoeste 18 Sudoeste 0 -- -- 23
2019-05-31 18:00:00 29.7 6 Noroeste 22 Oeste 0 -- -- 25
2019-05-31 17:00:00 29.2 10 Oeste 22 Sudeste 0 -- -- 26
2019-05-31 16:00:00 28.2 5 Sudeste 20 Sudeste 0 -- -- 28
2019-05-31 15:00:00 27 2 Este 20 Sudeste 0 -- -- 28
2019-05-31 14:00:00 25.8 2 Este 12 Norte 0 -- -- 30
2019-05-31 13:00:00 25.1 5 Sudeste 15 Sudoeste 0 -- -- 34
2019-05-31 12:00:00 23.9 6 Sudeste 14 Nordeste 0 -- -- 36
2019-05-31 11:00:00 22.5 3 Sudeste 8 Sur 0 -- -- 42
2019-05-31 10:00:00 20.6 2 Sudeste 5 Norte 0 -- -- 52
2019-05-31 09:00:00 16.8 5 Norte 13 Norte 0 -- -- 65
2019-05-31 08:00:00 13.6 12 Norte 17 Norte 0 -- -- 78
2019-05-31 07:00:00 11.3 13 Norte 16 Norte 0 -- -- 83
2019-05-31 06:00:00 11.7 14 Norte 19 Norte 0 -- -- 82
2019-05-31 05:00:00 12.1 12 Norte 16 Norte 0 -- -- 80
2019-05-31 04:00:00 12.4 13 Norte 16 Norte 0 -- -- 80
2019-05-31 03:00:00 13.3 13 Norte 17 Norte 0 -- -- 76
2019-05-31 02:00:00 14.2 10 Norte 16 Norte 0 -- -- 70
2019-05-31 01:00:00 15.6 8 Nordeste 11 Nordeste 0 -- -- 69
2019-05-31 00:00:00 17.5 5 Sur 18 Norte 0 -- -- 54
2019-05-30 23:00:00 19.6 12 Nordeste 27 Nordeste 0 -- -- 58
2019-05-30 22:00:00 21.1 19 Este 25 Este 0 -- -- 46
2019-05-30 21:00:00 23.5 18 Este 28 Este 0 -- -- 35
2019-05-30 20:00:00 24.6 21 Este 28 Este 0 -- -- 34
2019-05-30 19:00:00 25.9 3 Norte 13 Sudeste 0 -- -- 33
2019-05-30 18:00:00 26.2 10 Sudeste 19 Este 0 -- -- 35
2019-05-30 17:00:00 26.8 7 Noroeste 15 Sudeste 0 -- -- 35
2019-05-30 16:00:00 27 8 Sudoeste 17 Sudoeste 0 -- -- 34
2019-05-30 15:00:00 25.6 8 Sudoeste 21 Sur 0 -- -- 35
2019-05-30 14:00:00 24.4 6 Sudeste 16 Sur 0 -- -- 37
2019-05-30 13:00:00 22.5 6 Sudeste 12 Sur 0 -- -- 42
2019-05-30 12:00:00 19.9 4 Este 13 Sur 0 -- -- 48
2019-05-30 11:00:00 17.8 6 Sur 13 Sur 0 -- -- 54
2019-05-30 10:00:00 15.8 2 Este 9 Sur 0 -- -- 60
2019-05-30 09:00:00 13.4 0 Calma 11 Norte 0 -- -- 68
2019-05-30 08:00:00 9.7 10 Norte 14 Norte 0 -- -- 81
2019-05-30 07:00:00 8 12 Norte 17 Norte 0 -- -- 89
2019-05-30 06:00:00 8.2 12 Norte 19 Norte 0 -- -- 87
2019-05-30 05:00:00 8.7 12 Norte 14 Norte 0 -- -- 86
2019-05-30 04:00:00 9 12 Norte 15 Norte 0 -- -- 85
2019-05-30 03:00:00 10 10 Norte 13 Norte 0 -- -- 80
2019-05-30 02:00:00 11.5 10 Norte 13 Norte 0 -- -- 77
2019-05-30 01:00:00 12.9 8 Nordeste 13 Nordeste 0 -- -- 66
2019-05-30 00:00:00 14.7 4 Sudoeste 19 Este 0 -- -- 52
2019-05-29 23:00:00 16.9 6 Nordeste 17 Nordeste 0 -- -- 50
2019-05-29 22:00:00 17.8 11 Nordeste 28 Este 0 -- -- 54
2019-05-29 21:00:00 20 22 Este 35 Este 0 -- -- 44
2019-05-29 20:00:00 21.6 23 Este 31 Este 0 -- -- 40
2019-05-29 19:00:00 23.1 12 Sudeste 28 Sur 0 -- -- 33
2019-05-29 18:00:00 22.7 15 Sudeste 32 Sudeste 0 -- -- 35
2019-05-29 17:00:00 23.1 17 Sudeste 30 Sudeste 0 -- -- 36
2019-05-29 16:00:00 21.7 7 Nordeste 23 Este 0 -- -- 39
2019-05-29 15:00:00 21.4 8 Sudeste 19 Sur 0 -- -- 42
2019-05-29 14:00:00 20.4 7 Sur 20 Sur 0 -- -- 44
2019-05-29 13:00:00 18.2 6 Sudeste 17 Sur 0 -- -- 47
2019-05-29 12:00:00 17.3 6 Sudoeste 14 Sur 0 -- -- 49
2019-05-29 11:00:00 14.3 6 Sur 14 Sur 0 -- -- 57
2019-05-29 10:00:00 11.7 6 Sudoeste 11 Sudoeste 0 -- -- 64
2019-05-29 09:00:00 8.2 3 Sudoeste 8 Norte 0 -- -- 76
2019-05-29 08:00:00 7.2 9 Norte 13 Norte 0 -- -- 83
2019-05-29 07:00:00 5.4 6 Norte 11 Nordeste 0 -- -- 89
2019-05-29 06:00:00 5.7 8 Norte 15 Norte 0 -- -- 90
2019-05-29 05:00:00 6.2 6 Nordeste 9 Norte 0 -- -- 88
2019-05-29 04:00:00 6.2 3 Norte 11 Norte 0 -- -- 85
2019-05-29 03:00:00 6.6 2 Noroeste 10 Norte 0 -- -- 79
2019-05-29 02:00:00 8.3 8 Nordeste 17 Norte 0 -- -- 78
2019-05-29 01:00:00 8.7 9 Norte 20 Nordeste 0 -- -- 77
2019-05-29 00:00:00 9.9 15 Nordeste 24 Nordeste 0 -- -- 75
2019-05-28 23:00:00 10.8 22 Nordeste 41 Nordeste 0 -- -- 74
2019-05-28 22:00:00 12.1 39 Nordeste 54 Nordeste 0 -- -- 68
2019-05-28 21:00:00 13.7 29 Este 44 Este 0 -- -- 59
2019-05-28 20:00:00 15.7 32 Este 42 Este 0 -- -- 50
2019-05-28 19:00:00 17.4 17 Nordeste 36 Nordeste 0 -- -- 47
2019-05-28 18:00:00 17.7 22 Nordeste 35 Norte 0 -- -- 45
2019-05-28 17:00:00 17.9 22 Norte 36 Norte 0 -- -- 42
2019-05-28 16:00:00 17.7 21 Norte 42 Nordeste 0 -- -- 41
2019-05-28 15:00:00 17.8 26 Norte 37 Norte 0 -- -- 40
2019-05-28 14:00:00 17.5 17 Norte 32 Norte 0 -- -- 37
2019-05-28 13:00:00 17.9 13 Oeste 26 Oeste 0 -- -- 41
2019-05-28 12:00:00 15.4 7 Oeste 21 Noroeste 0 -- -- 45
2019-05-28 11:00:00 13.2 13 Oeste 22 Oeste 0 -- -- 52
2019-05-28 10:00:00 11.2 12 Noroeste 19 Noroeste 0 -- -- 61
2019-05-28 09:00:00 8.7 3 Sudoeste 10 Norte 0 -- -- 76
2019-05-28 08:00:00 6 8 Norte 10 Norte 0 -- -- 80
2019-05-28 07:00:00 4.7 8 Norte 12 Norte 0 -- -- 86
2019-05-28 06:00:00 5.5 5 Norte 8 Nordeste 0 -- -- 84
2019-05-28 05:00:00 6.1 4 Norte 8 Norte 0 -- -- 82
2019-05-28 04:00:00 7.1 5 Nordeste 9 Norte 0 -- -- 72
2019-05-28 03:00:00 7.7 6 Norte 10 Nordeste 0 -- -- 65
2019-05-28 02:00:00 8.2 3 Este 10 Este 0 -- -- 64
2019-05-28 01:00:00 9.7 5 Norte 13 Noroeste 0 -- -- 44
2019-05-28 00:00:00 12.1 9 Noroeste 20 Noroeste 0 -- -- 50